Time;durP1;ratioP1;P1;durP2;ratioP2;P2;SDS_P1;SDS_P2;PMS_P1;PMS_P2;Temp;Humidity;BMP_temperature;BMP_pressure;BME280_temperature;BME280_humidity;BME280_pressure;Samples;Min_cycle;Max_cycle;Signal;HPM_P1;HPM_P2
2022/07/30 00:00:06;;;;;;;7.05;5.53;;;15.00;99.90;;;;;;4717930;30;20056;-90
2022/07/30 00:02:32;;;;;;;10.65;5.45;;;15.00;99.90;;;;;;4718332;30;20061;-90
2022/07/30 00:04:58;;;;;;;8.45;4.45;;;15.00;99.90;;;;;;4717839;30;20494;-90
2022/07/30 00:07:23;;;;;;;8.52;4.65;;;14.90;99.90;;;;;;4717289;30;20079;-90
2022/07/30 00:09:49;;;;;;;7.75;4.70;;;14.90;99.90;;;;;;4718768;30;20403;-89
2022/07/30 00:12:15;;;;;;;7.00;4.60;;;14.90;99.90;;;;;;4717851;30;20060;-90
2022/07/30 00:14:40;;;;;;;8.48;4.22;;;14.90;99.90;;;;;;4733349;30;20092;-89
2022/07/30 00:17:06;;;;;;;6.43;4.07;;;14.80;99.90;;;;;;4717652;30;20088;-90
2022/07/30 00:19:32;;;;;;;8.07;4.28;;;14.80;99.90;;;;;;4718715;30;20052;-90
2022/07/30 00:21:58;;;;;;;7.20;4.85;;;14.80;99.90;;;;;;4717536;30;20140;-90
2022/07/30 00:24:24;;;;;;;8.10;4.72;;;14.70;99.90;;;;;;4717076;30;20150;-90
2022/07/30 00:26:50;;;;;;;8.52;5.38;;;14.70;99.90;;;;;;4717787;30;20076;-89
2022/07/30 00:29:16;;;;;;;8.10;5.50;;;14.70;99.90;;;;;;4715002;30;20114;-90
2022/07/30 00:31:42;;;;;;;8.57;5.00;;;14.70;99.90;;;;;;4720522;30;20052;-89
2022/07/30 00:34:08;;;;;;;9.60;4.53;;;14.60;99.90;;;;;;4720319;30;20045;-89
2022/07/30 00:36:34;;;;;;;6.95;4.80;;;14.60;99.90;;;;;;4721213;30;20080;-90
2022/07/30 00:39:00;;;;;;;8.90;5.20;;;14.60;99.90;;;;;;4721595;30;20114;-90
2022/07/30 00:41:26;;;;;;;8.35;5.50;;;14.50;99.90;;;;;;4719898;30;20509;-90
2022/07/30 00:43:52;;;;;;;9.02;5.75;;;14.60;99.90;;;;;;4720664;30;20052;-90
2022/07/30 00:46:17;;;;;;;9.20;5.60;;;14.50;99.90;;;;;;4720655;30;20056;-90
2022/07/30 00:48:44;;;;;;;7.32;5.28;;;14.50;99.90;;;;;;4721141;30;20088;-91
2022/07/30 00:51:10;;;;;;;8.77;5.75;;;14.50;99.90;;;;;;4720794;30;20122;-90
2022/07/30 00:53:37;;;;;;;20.95;6.13;;;14.50;99.90;;;;;;4720326;30;20498;-90
2022/07/30 00:56:03;;;;;;;8.93;5.80;;;14.50;99.90;;;;;;4735065;30;20045;-91
2022/07/30 00:58:29;;;;;;;7.55;5.57;;;14.50;99.90;;;;;;4720484;30;20080;-91
2022/07/30 01:00:55;;;;;;;9.48;5.50;;;14.40;99.90;;;;;;4735421;30;20091;-90
2022/07/30 01:03:20;;;;;;;10.23;4.13;;;14.40;99.90;;;;;;4719908;30;20159;-90
2022/07/30 01:05:46;;;;;;;9.50;4.57;;;14.40;99.90;;;;;;4720723;30;20048;-90
2022/07/30 01:08:12;;;;;;;6.43;4.18;;;14.30;99.90;;;;;;4749501;30;20067;-90
2022/07/30 01:10:38;;;;;;;8.10;4.93;;;14.30;99.90;;;;;;4719997;30;20113;-90
2022/07/30 01:13:05;;;;;;;6.05;4.32;;;14.20;99.90;;;;;;4720868;30;20129;-90
2022/07/30 01:15:31;;;;;;;3.40;1.92;;;14.20;99.90;;;;;;4720374;30;20052;-90
2022/07/30 01:18:02;;;;;;;5.85;3.60;;;14.20;99.90;;;;;;4735381;30;20193;-90
2022/07/30 01:20:47;;;;;;;4.45;3.33;;;14.20;99.90;;;;;;4720026;30;20051;-90
2022/07/30 01:23:26;;;;;;;6.45;4.57;;;14.10;99.90;;;;;;4719616;30;20052;-89
2022/07/30 01:26:02;;;;;;;5.20;3.88;;;14.10;99.90;;;;;;4733852;30;20068;-88
2022/07/30 01:28:34;;;;;;;6.28;3.10;;;14.00;99.90;;;;;;4720297;30;20410;-89
2022/07/30 01:31:02;;;;;;;4.35;3.03;;;14.00;99.90;;;;;;4734273;30;20052;-90
2022/07/30 01:33:30;;;;;;;3.53;2.10;;;14.00;99.90;;;;;;4719639;30;20087;-90
2022/07/30 01:35:57;;;;;;;1.88;1.10;;;13.90;99.90;;;;;;4720255;30;20502;-90
2022/07/30 01:38:25;;;;;;;4.07;2.25;;;13.90;99.90;;;;;;4719359;30;20052;-89
2022/07/30 01:40:53;;;;;;;2.50;1.33;;;13.90;99.90;;;;;;4716883;30;20135;-90
2022/07/30 01:43:20;;;;;;;3.65;2.47;;;13.80;99.90;;;;;;4702342;30;20094;-89
2022/07/30 01:45:47;;;;;;;4.57;1.77;;;13.80;99.90;;;;;;4702776;30;20124;-90
2022/07/30 01:48:15;;;;;;;3.78;2.40;;;13.80;99.90;;;;;;4702925;30;20067;-89
2022/07/30 01:50:44;;;;;;;6.18;3.20;;;13.80;99.90;;;;;;4708626;30;20048;-90
2022/07/30 01:53:15;;;;;;;3.10;2.00;;;13.70;99.90;;;;;;4701935;30;20060;-90
2022/07/30 01:55:42;;;;;;;6.10;3.40;;;13.70;99.90;;;;;;4702194;30;20380;-88
2022/07/30 01:58:11;;;;;;;4.20;2.50;;;13.70;99.90;;;;;;4703080;30;20142;-89
2022/07/30 02:00:39;;;;;;;2.42;1.60;;;13.70;99.90;;;;;;4702766;30;20140;-90
2022/07/30 02:03:07;;;;;;;2.38;1.40;;;13.60;99.90;;;;;;4716798;30;20045;-90
2022/07/30 02:05:35;;;;;;;2.72;1.90;;;13.60;99.90;;;;;;4701585;30;20048;-90
2022/07/30 02:08:04;;;;;;;3.40;2.13;;;13.60;99.90;;;;;;4703616;30;20060;-90
2022/07/30 02:10:44;;;;;;;7.10;3.65;;;13.50;99.90;;;;;;4702117;30;20049;-90
2022/07/30 02:13:14;;;;;;;4.30;2.58;;;13.50;99.90;;;;;;4701655;30;20053;-90
2022/07/30 02:15:53;;;;;;;3.42;2.08;;;13.50;99.90;;;;;;4702022;30;20240;-90
2022/07/30 02:18:31;;;;;;;3.53;2.30;;;13.40;99.90;;;;;;4702405;30;20060;-90
2022/07/30 02:21:04;;;;;;;5.50;2.38;;;13.40;99.90;;;;;;4703998;30;20049;-89
2022/07/30 02:23:34;;;;;;;6.63;4.20;;;13.40;99.90;;;;;;4702698;30;20521;-89
2022/07/30 02:26:00;;;;;;;5.43;4.05;;;13.40;99.90;;;;;;4701687;30;20453;-89
2022/07/30 02:28:29;;;;;;;7.68;4.35;;;13.40;99.90;;;;;;4702287;30;20048;-90
2022/07/30 02:30:58;;;;;;;8.82;5.20;;;13.40;99.90;;;;;;4700364;30;20052;-90
2022/07/30 02:33:29;;;;;;;7.35;5.07;;;13.40;99.90;;;;;;4700362;30;20045;-90
2022/07/30 02:35:56;;;;;;;8.48;4.93;;;13.40;99.90;;;;;;4701602;30;20091;-90
2022/07/30 02:38:24;;;;;;;13.18;4.80;;;13.40;99.90;;;;;;4703325;30;20086;-90
2022/07/30 02:40:51;;;;;;;9.68;4.65;;;13.40;99.90;;;;;;4703513;30;20056;-90
2022/07/30 02:43:20;;;;;;;9.25;5.10;;;13.40;99.90;;;;;;4703774;30;20144;-89
2022/07/30 02:45:47;;;;;;;11.02;5.88;;;13.30;99.90;;;;;;4704347;30;20139;-90
2022/07/30 02:48:15;;;;;;;8.10;6.25;;;13.30;99.90;;;;;;4716411;30;20514;-90
2022/07/30 02:50:41;;;;;;;6.50;3.20;;;13.40;99.90;;;;;;4703722;30;20076;-90
2022/07/30 02:53:10;;;;;;;10.43;5.18;;;13.30;99.90;;;;;;4703644;30;20053;-90
2022/07/30 02:55:39;;;;;;;8.75;5.72;;;13.30;99.90;;;;;;4703178;30;20130;-90
2022/07/30 02:58:06;;;;;;;6.90;5.68;;;13.20;99.90;;;;;;4703739;30;20525;-90
2022/07/30 03:00:33;;;;;;;5.93;4.50;;;13.20;99.90;;;;;;4702992;30;20062;-90
2022/07/30 03:03:01;;;;;;;9.25;3.95;;;13.20;99.90;;;;;;4703188;30;20075;-89
2022/07/30 03:05:27;;;;;;;3.03;2.35;;;13.20;99.90;;;;;;4703204;30;20103;-90
2022/07/30 03:07:55;;;;;;;9.18;3.20;;;13.20;99.90;;;;;;4717811;30;20125;-90
2022/07/30 03:10:22;;;;;;;4.10;2.97;;;13.20;99.90;;;;;;4722045;30;20168;-90
2022/07/30 03:12:49;;;;;;;5.53;3.88;;;13.10;99.90;;;;;;4723285;30;20052;-90
2022/07/30 03:15:15;;;;;;;4.70;3.60;;;13.10;99.90;;;;;;4721734;30;20071;-90
2022/07/30 03:17:45;;;;;;;4.07;2.72;;;13.10;99.90;;;;;;4719941;30;20490;-90
2022/07/30 03:20:14;;;;;;;3.65;2.53;;;13.10;99.90;;;;;;4735154;30;20051;-90
2022/07/30 03:22:46;;;;;;;2.88;1.92;;;13.00;99.90;;;;;;4719900;30;20059;-90
2022/07/30 03:25:15;;;;;;;1.90;1.43;;;13.00;99.90;;;;;;4720771;30;20141;-90
2022/07/30 03:27:41;;;;;;;3.67;1.80;;;12.90;99.90;;;;;;4735225;30;20561;-90
2022/07/30 03:30:08;;;;;;;3.38;1.75;;;12.90;99.90;;;;;;4720165;30;20052;-89
2022/07/30 03:32:35;;;;;;;5.38;2.55;;;12.90;99.90;;;;;;4734301;30;20093;-90
2022/07/30 03:35:01;;;;;;;10.40;5.75;;;12.90;99.90;;;;;;4721209;30;20063;-90
2022/07/30 03:37:27;;;;;;;12.55;6.22;;;12.80;99.90;;;;;;4719840;30;20044;-90
2022/07/30 03:39:53;;;;;;;13.48;6.35;;;12.90;99.90;;;;;;4720730;30;20052;-90
2022/07/30 03:42:20;;;;;;;12.27;6.95;;;13.00;99.90;;;;;;4720633;30;20052;-90
2022/07/30 03:44:46;;;;;;;9.73;7.18;;;13.00;99.90;;;;;;4734750;30;20052;-90
2022/07/30 03:47:14;;;;;;;9.82;6.90;;;13.00;99.90;;;;;;4719685;30;20055;-90
2022/07/30 03:49:40;;;;;;;9.13;5.50;;;13.00;99.90;;;;;;4718995;30;20052;-90
2022/07/30 03:52:07;;;;;;;11.75;5.40;;;13.10;99.90;;;;;;4734469;30;20114;-89
2022/07/30 03:54:34;;;;;;;11.43;8.32;;;13.10;99.90;;;;;;4720410;30;20140;-89
2022/07/30 03:57:02;;;;;;;8.73;6.78;;;13.10;99.90;;;;;;4732373;30;20573;-90
2022/07/30 03:59:29;;;;;;;9.27;6.57;;;13.10;99.90;;;;;;4718757;30;20060;-90
2022/07/30 04:02:00;;;;;;;13.40;7.47;;;13.10;99.90;;;;;;4716815;30;20499;-90
2022/07/30 04:04:26;;;;;;;14.05;7.05;;;13.10;99.90;;;;;;4716798;30;20510;-90
2022/07/30 04:06:52;;;;;;;9.57;6.63;;;13.10;99.90;;;;;;4717901;30;20048;-90
2022/07/30 04:09:18;;;;;;;12.25;8.38;;;13.20;99.90;;;;;;4716914;30;20498;-90
2022/07/30 04:11:44;;;;;;;11.48;8.27;;;13.20;99.90;;;;;;4718478;30;20045;-90
2022/07/30 04:14:09;;;;;;;10.82;8.00;;;13.30;99.90;;;;;;4726336;30;20181;-90
2022/07/30 04:16:49;;;;;;;10.70;7.30;;;13.30;99.90;;;;;;4716163;30;20057;-90
2022/07/30 04:19:25;;;;;;;13.25;7.60;;;13.40;99.90;;;;;;4716604;30;20102;-90
2022/07/30 04:21:52;;;;;;;8.95;5.65;;;13.40;99.90;;;;;;4718039;30;20049;-91
2022/07/30 04:24:18;;;;;;;9.45;6.97;;;13.40;99.90;;;;;;4718231;30;20049;-90
2022/07/30 04:26:46;;;;;;;11.23;7.00;;;13.40;99.90;;;;;;4730763;30;20118;-90
2022/07/30 04:29:12;;;;;;;9.65;6.90;;;13.50;99.90;;;;;;4725642;30;20052;-90
2022/07/30 04:31:38;;;;;;;13.25;7.97;;;13.50;99.90;;;;;;4716122;30;20216;-90
2022/07/30 04:34:04;;;;;;;9.20;6.30;;;13.60;99.90;;;;;;4716711;30;20057;-90
2022/07/30 04:36:32;;;;;;;8.05;6.50;;;13.60;99.90;;;;;;4717820;30;20171;-90
2022/07/30 04:38:59;;;;;;;11.07;8.18;;;13.60;99.90;;;;;;4718127;30;20056;-90
2022/07/30 04:41:25;;;;;;;12.50;7.55;;;13.60;99.90;;;;;;4716163;30;20049;-91
2022/07/30 04:43:51;;;;;;;19.35;8.88;;;13.70;99.90;;;;;;4719066;30;20098;-90
2022/07/30 04:46:17;;;;;;;15.18;6.85;;;13.70;99.90;;;;;;4715811;30;20499;-90
2022/07/30 04:48:43;;;;;;;12.68;6.80;;;13.80;99.90;;;;;;4715435;30;20060;-90
2022/07/30 04:51:15;;;;;;;11.30;6.90;;;13.80;99.90;;;;;;4716481;30;20113;-90
2022/07/30 04:53:42;;;;;;;11.77;7.03;;;13.80;99.90;;;;;;4717909;30;20139;-89
2022/07/30 04:56:09;;;;;;;13.60;6.97;;;13.90;99.90;;;;;;4717370;30;20158;-90
2022/07/30 04:58:36;;;;;;;12.05;7.65;;;13.90;99.90;;;;;;4717938;30;20056;-91
2022/07/30 05:01:03;;;;;;;13.45;7.43;;;14.00;99.90;;;;;;4715906;30;20095;-90
2022/07/30 05:03:30;;;;;;;15.20;9.05;;;14.00;99.90;;;;;;4715518;30;20605;-91
2022/07/30 05:05:57;;;;;;;12.75;8.93;;;14.00;99.90;;;;;;4718155;30;20056;-91
2022/07/30 05:08:25;;;;;;;18.38;9.73;;;14.10;99.90;;;;;;4715268;30;20056;-91
2022/07/30 05:10:50;;;;;;;13.73;10.23;;;14.20;99.90;;;;;;4718127;30;20094;-91
2022/07/30 05:13:16;;;;;;;14.23;9.65;;;14.20;99.90;;;;;;4718162;30;20094;-91
2022/07/30 05:15:43;;;;;;;13.05;9.77;;;14.30;99.90;;;;;;4723276;30;20118;-90
2022/07/30 05:18:10;;;;;;;14.90;9.88;;;14.40;99.90;;;;;;4724893;30;20071;-91
2022/07/30 05:20:36;;;;;;;16.40;11.13;;;14.40;99.90;;;;;;4709092;30;20061;-91
2022/07/30 05:23:02;;;;;;;17.73;11.38;;;14.50;99.90;;;;;;4708569;30;20055;-91
2022/07/30 05:25:28;;;;;;;10.95;9.10;;;14.60;99.90;;;;;;4711190;30;20064;-91
2022/07/30 05:27:55;;;;;;;14.88;9.73;;;14.80;99.90;;;;;;4739011;30;20498;-90
2022/07/30 05:30:21;;;;;;;18.38;11.38;;;14.90;99.90;;;;;;4723282;30;20158;-91
2022/07/30 05:32:47;;;;;;;23.67;12.40;;;15.00;99.90;;;;;;4710266;30;20053;-90
2022/07/30 05:35:14;;;;;;;24.65;11.93;;;15.10;99.90;;;;;;4710414;30;20410;-91
2022/07/30 05:37:39;;;;;;;17.50;12.07;;;15.20;99.90;;;;;;4707451;30;20063;-91
2022/07/30 05:40:06;;;;;;;19.35;12.50;;;15.40;99.90;;;;;;4707833;30;20052;-91
2022/07/30 05:42:31;;;;;;;18.13;12.80;;;15.50;99.90;;;;;;4708817;30;20040;-91
2022/07/30 05:44:59;;;;;;;18.98;12.52;;;15.60;99.90;;;;;;4710425;30;20106;-90
2022/07/30 05:47:25;;;;;;;17.98;12.27;;;15.70;99.90;;;;;;4710789;30;20059;-91
2022/07/30 05:49:51;;;;;;;16.98;11.88;;;15.80;99.90;;;;;;4710616;30;20036;-90
2022/07/30 05:52:18;;;;;;;20.73;12.30;;;16.00;99.90;;;;;;4709048;30;20058;-90
2022/07/30 05:54:44;;;;;;;20.55;12.95;;;16.10;99.90;;;;;;4710313;30;20097;-91
2022/07/30 05:57:10;;;;;;;15.63;12.38;;;16.20;99.90;;;;;;4709340;30;20457;-91
2022/07/30 05:59:35;;;;;;;21.10;12.40;;;16.50;99.90;;;;;;4711228;30;20052;-90
2022/07/30 06:02:02;;;;;;;23.20;13.15;;;16.40;99.90;;;;;;4716744;30;20044;-90
2022/07/30 06:04:28;;;;;;;18.65;12.88;;;16.50;99.90;;;;;;4720119;30;20409;-90
2022/07/30 06:06:54;;;;;;;18.30;11.35;;;16.70;99.90;;;;;;4731325;30;20070;-92
2022/07/30 06:09:23;;;;;;;24.52;12.23;;;16.80;99.90;;;;;;4718198;30;20486;-92
2022/07/30 06:11:48;;;;;;;20.08;11.40;;;16.90;99.90;;;;;;4718090;30;20052;-92
2022/07/30 06:14:14;;;;;;;16.27;11.02;;;16.90;99.90;;;;;;4722674;30;20084;-92
2022/07/30 06:16:40;;;;;;;19.23;11.20;;;17.00;99.90;;;;;;4735661;30;20052;-92
2022/07/30 06:19:05;;;;;;;21.42;12.13;;;17.10;99.90;;;;;;4719079;30;20051;-89
2022/07/30 06:21:31;;;;;;;17.60;11.05;;;17.20;99.90;;;;;;4721038;30;20546;-91
2022/07/30 06:23:57;;;;;;;28.30;12.45;;;17.30;99.90;;;;;;4723949;30;20139;-91
2022/07/30 06:26:22;;;;;;;17.95;10.57;;;17.40;99.90;;;;;;4720362;30;20387;-90
2022/07/30 06:28:48;;;;;;;19.85;11.45;;;17.60;99.90;;;;;;4721991;30;20060;-91
2022/07/30 06:31:14;;;;;;;17.58;10.70;;;17.70;99.90;;;;;;4723668;30;20102;-90
2022/07/30 06:33:39;;;;;;;21.27;10.98;;;17.80;99.90;;;;;;4722407;30;20060;-91
2022/07/30 06:36:05;;;;;;;17.63;10.07;;;17.80;99.90;;;;;;4723648;30;20048;-89
2022/07/30 06:38:31;;;;;;;13.80;9.73;;;17.90;99.90;;;;;;4721471;30;20409;-93
2022/07/30 06:40:57;;;;;;;15.50;9.38;;;18.00;99.90;;;;;;4723351;30;20058;-94
2022/07/30 06:43:23;;;;;;;20.15;10.27;;;18.10;99.90;;;;;;4721102;30;20052;-93
2022/07/30 06:45:49;;;;;;;13.13;10.02;;;18.20;99.90;;;;;;4720630;30;20067;-93
2022/07/30 06:48:14;;;;;;;16.33;9.38;;;18.20;99.90;;;;;;4721035;30;20052;-92
2022/07/30 06:50:40;;;;;;;15.07;10.25;;;18.30;99.90;;;;;;4721472;30;20145;-93
2022/07/30 06:53:09;;;;;;;15.60;9.57;;;18.30;99.90;;;;;;4721128;30;20471;-93
2022/07/30 06:55:35;;;;;;;17.40;9.60;;;18.40;99.90;;;;;;4734975;30;20048;-92
2022/07/30 06:58:00;;;;;;;19.42;9.75;;;18.50;99.90;;;;;;4736118;30;20063;-91
2022/07/30 07:00:26;;;;;;;20.33;9.57;;;18.60;99.90;;;;;;4734997;30;20070;-92
2022/07/30 07:02:52;;;;;;;18.27;9.73;;;18.70;99.90;;;;;;4735588;30;20139;-91
2022/07/30 07:05:19;;;;;;;19.83;9.43;;;18.80;99.90;;;;;;4738807;30;20165;-93
2022/07/30 07:07:45;;;;;;;29.40;10.45;;;18.90;99.90;;;;;;4734921;30;20048;-93
2022/07/30 07:10:10;;;;;;;20.92;10.05;;;19.00;99.90;;;;;;4721218;30;20079;-93
2022/07/30 07:12:36;;;;;;;18.40;9.68;;;19.10;99.90;;;;;;4720964;30;20522;-92
2022/07/30 07:15:02;;;;;;;18.85;9.50;;;19.20;99.90;;;;;;4734894;30;20105;-94
2022/07/30 07:17:28;;;;;;;15.75;9.10;;;19.30;99.90;;;;;;4735486;30;20112;-92
2022/07/30 07:19:57;;;;;;;22.77;9.40;;;19.40;99.90;;;;;;4737355;30;20060;-92
2022/07/30 07:22:23;;;;;;;18.60;8.88;;;19.50;99.90;;;;;;4728879;30;20090;-90
2022/07/30 07:24:48;;;;;;;15.38;8.55;;;19.60;99.90;;;;;;4726716;30;20064;-91
2022/07/30 07:27:14;;;;;;;17.85;8.00;;;19.70;99.90;;;;;;4722353;30;20539;-92
2022/07/30 07:29:40;;;;;;;20.83;8.23;;;19.80;99.90;;;;;;4721899;30;20053;-90
2022/07/30 07:32:06;;;;;;;18.65;7.57;;;19.90;99.90;;;;;;4746209;30;20472;-90
2022/07/30 07:34:32;;;;;;;14.32;7.35;;;20.00;99.90;;;;;;4747637;30;20048;-93
2022/07/30 07:36:58;;;;;;;16.13;7.32;;;20.10;99.90;;;;;;4731977;30;20060;-92
2022/07/30 07:39:24;;;;;;;17.27;7.45;;;20.20;99.90;;;;;;4746776;30;20125;-92
2022/07/30 07:41:49;;;;;;;12.75;7.50;;;20.30;99.90;;;;;;4746860;30;20048;-92
2022/07/30 07:44:15;;;;;;;14.85;6.82;;;20.40;99.90;;;;;;4746469;30;20040;-90
2022/07/30 07:46:41;;;;;;;16.70;7.10;;;20.40;99.90;;;;;;4746513;30;20503;-91
2022/07/30 07:49:06;;;;;;;13.63;7.38;;;20.50;99.90;;;;;;4747374;30;20144;-91
2022/07/30 07:51:34;;;;;;;12.32;6.95;;;20.60;99.90;;;;;;4746459;30;20414;-91
2022/07/30 07:54:01;;;;;;;18.85;6.80;;;20.70;99.90;;;;;;4747340;30;20052;-92
2022/07/30 07:56:26;;;;;;;15.30;7.05;;;20.70;99.90;;;;;;4746213;30;20052;-92
2022/07/30 07:58:52;;;;;;;14.40;6.57;;;20.90;99.90;;;;;;4718766;30;20048;-91
2022/07/30 08:01:20;;;;;;;13.07;6.18;;;21.00;99.90;;;;;;4746216;30;20059;-92
2022/07/30 08:03:46;;;;;;;17.38;6.72;;;21.10;99.90;;;;;;4746866;30;20052;-91
2022/07/30 08:06:12;;;;;;;15.52;5.70;;;21.10;99.90;;;;;;4716774;30;20056;-92
2022/07/30 08:08:37;;;;;;;18.70;5.85;;;21.20;99.90;;;;;;4731628;30;20052;-92
2022/07/30 08:11:04;;;;;;;14.98;6.43;;;21.30;99.90;;;;;;4746031;30;20053;-93
2022/07/30 08:13:30;;;;;;;11.57;5.72;;;21.40;99.90;;;;;;4746373;30;20102;-92
2022/07/30 08:15:55;;;;;;;13.85;6.35;;;21.50;99.90;;;;;;4746682;30;20048;-92
2022/07/30 08:18:21;;;;;;;12.23;6.05;;;21.60;99.90;;;;;;4718779;30;20109;-92
2022/07/30 08:20:48;;;;;;;12.65;5.72;;;21.70;99.90;;;;;;4720629;30;20409;-91
2022/07/30 08:23:14;;;;;;;16.92;6.22;;;21.70;99.90;;;;;;4721108;30;20195;-93
2022/07/30 08:25:40;;;;;;;15.50;5.65;;;21.80;99.90;;;;;;4720792;30;20060;-92
2022/07/30 08:28:06;;;;;;;12.82;4.80;;;21.90;99.90;;;;;;4722158;30;20544;-92
2022/07/30 08:30:32;;;;;;;15.73;4.88;;;21.90;99.90;;;;;;4738893;30;20079;-93
2022/07/30 08:32:57;;;;;;;13.30;4.47;;;22.00;99.90;;;;;;4720992;30;20134;-92
2022/07/30 08:35:23;;;;;;;18.10;4.88;;;22.00;99.90;;;;;;4719955;30;20048;-94
2022/07/30 08:37:49;;;;;;;15.13;4.20;;;22.10;99.90;;;;;;4720373;30;20055;-94
2022/07/30 08:40:18;;;;;;;13.98;3.83;;;22.30;99.90;;;;;;4720854;30;20430;-93
2022/07/30 08:42:44;;;;;;;15.48;4.47;;;22.40;99.90;;;;;;4721285;30;20118;-93
2022/07/30 08:45:12;;;;;;;11.95;4.50;;;22.50;99.90;;;;;;4719892;30;20534;-93
2022/07/30 08:47:40;;;;;;;17.63;4.43;;;22.70;99.90;;;;;;4718499;30;20052;-93
2022/07/30 08:50:07;;;;;;;15.75;4.10;;;22.50;99.90;;;;;;4721478;30;20155;-93
2022/07/30 08:52:35;;;;;;;17.05;4.03;;;22.50;99.90;;;;;;4719521;30;20052;-93
2022/07/30 08:55:03;;;;;;;11.38;3.63;;;22.60;99.90;;;;;;4719320;30;20048;-93
2022/07/30 08:57:31;;;;;;;13.77;4.00;;;22.60;99.90;;;;;;4719313;30;20130;-94
2022/07/30 08:59:58;;;;;;;16.88;4.55;;;22.70;99.90;;;;;;4719975;30;20090;-92
2022/07/30 09:02:24;;;;;;;8.50;3.75;;;22.90;99.90;;;;;;4718155;30;20045;-92
2022/07/30 09:04:50;;;;;;;10.93;4.00;;;22.90;99.90;;;;;;4719035;30;20084;-93
2022/07/30 09:07:16;;;;;;;12.38;3.88;;;22.70;99.90;;;;;;4720056;30;20117;-93
2022/07/30 09:09:42;;;;;;;14.25;4.30;;;22.70;99.90;;;;;;4720964;30;20112;-93
2022/07/30 09:12:44;;;;;;;14.75;3.90;;;22.70;99.90;;;;;;4718928;30;20554;-91
2022/07/30 09:15:09;;;;;;;8.23;3.40;;;22.70;99.90;;;;;;4718141;30;20423;-93
2022/07/30 09:17:50;;;;;;;14.68;3.63;;;22.80;99.90;;;;;;4733567;30;20061;-93
2022/07/30 09:20:18;;;;;;;11.30;2.92;;;22.90;99.90;;;;;;4720261;30;20059;-93
2022/07/30 09:22:50;;;;;;;12.65;3.50;;;22.70;99.90;;;;;;4718687;30;20441;-92
2022/07/30 09:25:32;;;;;;;30.83;4.07;;;22.60;99.90;;;;;;4718965;30;20106;-92
2022/07/30 09:27:58;;;;;;;10.70;3.30;;;22.60;99.90;;;;;;4719441;30;20058;-92
2022/07/30 09:30:24;;;;;;;17.52;3.38;;;22.70;99.90;;;;;;4717536;30;20139;-93
2022/07/30 09:32:53;;;;;;;8.10;2.95;;;22.90;99.90;;;;;;4720272;30;20048;-92
2022/07/30 09:35:20;;;;;;;17.55;4.03;;;23.00;99.90;;;;;;4717789;30;20048;-92
2022/07/30 09:37:56;;;;;;;6.65;2.72;;;23.10;99.90;;;;;;4720433;30;20070;-93
2022/07/30 09:40:22;;;;;;;13.55;3.28;;;23.20;99.90;;;;;;4715757;30;20553;-92
2022/07/30 09:43:01;;;;;;;12.63;2.50;;;23.20;99.90;;;;;;4725862;30;20058;-94
2022/07/30 09:45:27;;;;;;;17.70;3.05;;;23.20;99.90;;;;;;4714822;30;20409;-91
2022/07/30 09:47:53;;;;;;;11.73;2.80;;;23.20;99.90;;;;;;4717078;30;20064;-91
2022/07/30 09:50:20;;;;;;;11.85;2.67;;;23.20;99.90;;;;;;4700202;30;20410;-91
2022/07/30 09:52:48;;;;;;;15.25;3.33;;;23.20;99.90;;;;;;4715968;30;20108;-92
2022/07/30 09:55:27;;;;;;;10.65;2.40;;;23.30;99.90;;;;;;4717926;30;20068;-94
2022/07/30 09:57:56;;;;;;;7.68;2.38;;;23.30;99.90;;;;;;4718902;30;20149;-93
2022/07/30 10:00:24;;;;;;;9.07;2.28;;;23.40;99.90;;;;;;4721976;30;20048;-94
2022/07/30 10:02:52;;;;;;;11.00;2.30;;;23.50;99.90;;;;;;4723814;30;20048;-95
2022/07/30 10:05:20;;;;;;;10.93;2.20;;;23.50;99.90;;;;;;4725125;30;20051;-94
2022/07/30 10:07:54;;;;;;;7.15;2.72;;;23.50;99.90;;;;;;4709961;30;20520;-93
2022/07/30 10:10:26;;;;;;;8.88;2.15;;;23.50;99.90;;;;;;4725181;30;20087;-94
2022/07/30 10:12:56;;;;;;;11.68;2.60;;;23.30;99.90;;;;;;4724300;30;20049;-94
2022/07/30 10:15:27;;;;;;;13.38;2.80;;;23.30;99.90;;;;;;4724241;30;20436;-93
2022/07/30 10:17:54;;;;;;;10.35;2.47;;;23.40;99.90;;;;;;4723641;30;20162;-94
2022/07/30 10:20:20;;;;;;;10.40;2.33;;;23.50;99.90;;;;;;4722983;30;21003;-94
2022/07/30 10:22:46;;;;;;;15.55;2.78;;;23.50;99.90;;;;;;4721097;30;20087;-95
2022/07/30 10:25:12;;;;;;;10.35;2.40;;;23.50;99.90;;;;;;4715504;30;20455;-94
2022/07/30 10:27:38;;;;;;;12.63;2.30;;;23.50;99.90;;;;;;4715438;30;20065;-93
2022/07/30 10:30:04;;;;;;;8.73;2.20;;;23.70;99.90;;;;;;4716466;30;20198;-94
2022/07/30 10:32:31;;;;;;;13.35;2.08;;;23.90;99.90;;;;;;4732320;30;20064;-94
2022/07/30 10:34:58;;;;;;;12.73;2.35;;;24.10;99.90;;;;;;4736056;30;20135;-93
2022/07/30 10:37:26;;;;;;;7.00;1.80;;;24.20;99.90;;;;;;4733078;30;20052;-93
2022/07/30 10:39:58;;;;;;;8.20;2.15;;;24.30;99.90;;;;;;4737075;30;20048;-94
2022/07/30 10:42:33;;;;;;;9.32;2.40;;;24.10;99.90;;;;;;4732430;30;20114;-94
2022/07/30 10:45:08;;;;;;;5.63;1.80;;;24.00;99.90;;;;;;4732975;30;20049;-95
2022/07/30 10:47:37;;;;;;;10.70;2.22;;;24.10;99.90;;;;;;4731888;30;20143;-95
2022/07/30 10:50:14;;;;;;;7.55;1.98;;;24.20;99.90;;;;;;4734444;30;20044;-94
2022/07/30 10:52:50;;;;;;;10.90;2.30;;;24.50;99.90;;;;;;4732976;30;20098;-95
2022/07/30 10:55:23;;;;;;;10.65;2.78;;;24.70;99.90;;;;;;4734788;30;20052;-92
2022/07/30 10:57:59;;;;;;;7.35;2.05;;;24.90;99.90;;;;;;4718668;30;20040;-94
2022/07/30 11:00:27;;;;;;;8.98;1.90;;;25.20;99.90;;;;;;4720130;30;20545;-94
2022/07/30 11:03:15;;;;;;;9.40;1.90;;;25.30;99.90;;;;;;4723362;30;20043;-93
2022/07/30 11:05:43;;;;;;;7.95;2.03;;;25.50;99.90;;;;;;4716517;30;20055;-94
2022/07/30 11:08:31;;;;;;;9.50;1.52;;;25.40;99.90;;;;;;4725747;30;20048;-94
2022/07/30 11:10:57;;;;;;;8.00;1.90;;;25.10;99.90;;;;;;4741950;30;20083;-94
2022/07/30 11:13:47;;;;;;;7.55;2.03;;;25.00;99.90;;;;;;4714379;30;20514;-94
2022/07/30 11:16:13;;;;;;;12.88;2.40;;;25.00;99.90;;;;;;4723616;30;20087;-94
2022/07/30 11:19:15;;;;;;;8.30;2.10;;;25.10;99.90;;;;;;4711665;30;20158;-94
2022/07/30 11:21:41;;;;;;;7.20;1.90;;;25.00;99.90;;;;;;4729359;30;20505;-94
2022/07/30 11:24:46;;;;;;;9.18;1.90;;;24.80;99.90;;;;;;4739525;30;20056;-94
2022/07/30 11:27:36;;;;;;;13.15;2.17;;;24.70;99.90;;;;;;4711349;30;20095;-94
2022/07/30 11:30:25;;;;;;;12.18;2.35;;;24.80;99.90;;;;;;4744119;30;20055;-93
2022/07/30 11:32:53;;;;;;;8.85;2.25;;;24.90;99.90;;;;;;4728589;30;20474;-94
2022/07/30 11:35:27;;;;;;;10.98;2.30;;;24.90;99.90;;;;;;4726101;30;20044;-94
2022/07/30 11:38:01;;;;;;;5.13;1.88;;;24.90;99.90;;;;;;4726715;30;20486;-93
2022/07/30 11:40:30;;;;;;;8.60;2.40;;;25.10;99.90;;;;;;4717601;30;20115;-93
2022/07/30 11:43:14;;;;;;;8.27;2.00;;;25.30;99.90;;;;;;4718943;30;20095;-93
2022/07/30 11:45:40;;;;;;;10.27;2.70;;;25.60;99.90;;;;;;4725154;30;20056;-93
2022/07/30 11:48:12;;;;;;;8.07;1.95;;;25.70;99.90;;;;;;4722572;30;20139;-96
2022/07/30 11:50:38;;;;;;;10.38;2.35;;;25.70;99.90;;;;;;4705274;30;20123;-94
2022/07/30 11:53:06;;;;;;;9.07;2.03;;;25.70;99.90;;;;;;4718589;30;20057;-93
2022/07/30 11:55:38;;;;;;;10.07;1.90;;;25.70;99.90;;;;;;4718119;30;20045;-93
2022/07/30 11:58:08;;;;;;;10.48;1.95;;;25.80;99.90;;;;;;4718845;30;20060;-94
2022/07/30 12:00:37;;;;;;;5.28;1.73;;;25.90;99.90;;;;;;4719516;30;20091;-93
2022/07/30 12:03:12;;;;;;;6.28;1.70;;;25.90;99.90;;;;;;4702343;30;20052;-93
2022/07/30 12:05:39;;;;;;;28.88;2.75;;;26.00;99.90;;;;;;4731397;30;20048;-93
2022/07/30 12:08:05;;;;;;;10.77;1.73;;;26.00;99.90;;;;;;4717374;30;20062;-95
2022/07/30 12:10:34;;;;;;;9.85;2.25;;;26.00;99.90;;;;;;4716679;30;20048;-93
2022/07/30 12:13:07;;;;;;;19.92;3.30;;;25.70;99.90;;;;;;4717418;30;20147;-93
2022/07/30 12:15:36;;;;;;;16.40;1.92;;;25.60;99.90;;;;;;4717251;30;20065;-94
2022/07/30 12:18:06;;;;;;;10.77;1.80;;;25.70;99.90;;;;;;4733933;30;20052;-96
2022/07/30 12:20:32;;;;;;;10.00;1.98;;;25.90;99.90;;;;;;4722138;30;20048;-95
2022/07/30 12:22:58;;;;;;;9.07;1.38;;;26.10;99.90;;;;;;4730300;24;20143;-91
2022/07/30 12:25:24;;;;;;;7.75;1.48;;;26.10;99.90;;;;;;4734847;30;20092;-92
2022/07/30 12:27:50;;;;;;;7.38;1.75;;;25.80;99.90;;;;;;4735110;30;20202;-91
2022/07/30 12:30:17;;;;;;;7.32;1.45;;;25.70;99.90;;;;;;4735322;30;20052;-91
2022/07/30 12:32:44;;;;;;;12.63;2.33;;;25.60;99.90;;;;;;4735082;30;20052;-91
2022/07/30 12:35:10;;;;;;;6.63;1.50;;;25.70;99.90;;;;;;4735342;30;20051;-92
2022/07/30 12:37:37;;;;;;;9.98;1.75;;;26.00;99.90;;;;;;4735289;30;20052;-92
2022/07/30 12:40:07;;;;;;;13.20;1.77;;;26.10;99.60;;;;;;4734826;30;20176;-90
2022/07/30 12:42:33;;;;;;;4.80;1.50;;;26.00;99.40;;;;;;4735886;30;20048;-93
2022/07/30 12:44:59;;;;;;;8.82;1.73;;;25.80;98.60;;;;;;4735533;30;20466;-92